sensor_id;sensor_type;location;lat;lon;timestamp;pressure;altitude;pressure_sealevel;temperature;humidity
67009;BME280;53922;52.080;4.748;2022-07-29T00:06:10;59549.00;;;15.79;73.70
67009;BME280;53922;52.080;4.748;2022-07-29T00:08:36;59547.84;;;15.75;74.06
67009;BME280;53922;52.080;4.748;2022-07-29T00:11:01;59550.47;;;15.75;74.07
67009;BME280;53922;52.080;4.748;2022-07-29T00:13:27;59549.47;;;15.77;73.75
67009;BME280;53922;52.080;4.748;2022-07-29T00:15:52;59540.34;;;15.70;74.19
67009;BME280;53922;52.080;4.748;2022-07-29T00:18:17;59539.75;;;15.67;74.48
67009;BME280;53922;52.080;4.748;2022-07-29T00:20:43;59533.34;;;15.64;74.35
67009;BME280;53922;52.080;4.748;2022-07-29T00:23:08;59539.66;;;15.65;74.71
67009;BME280;53922;52.080;4.748;2022-07-29T00:25:33;59532.81;;;15.63;74.55
67009;BME280;53922;52.080;4.748;2022-07-29T00:27:59;59532.72;;;15.61;74.81
67009;BME280;53922;52.080;4.748;2022-07-29T00:30:24;59533.28;;;15.61;74.56
67009;BME280;53922;52.080;4.748;2022-07-29T00:32:49;59530.59;;;15.58;74.60
67009;BME280;53922;52.080;4.748;2022-07-29T00:35:15;59532.66;;;15.58;74.73
67009;BME280;53922;52.080;4.748;2022-07-29T00:37:59;59524.72;;;15.55;75.21
67009;BME280;53922;52.080;4.748;2022-07-29T00:40:24;59527.97;;;15.58;75.22
67009;BME280;53922;52.080;4.748;2022-07-29T00:42:51;59535.38;;;15.61;75.36
67009;BME280;53922;52.080;4.748;2022-07-29T00:45:17;59526.25;;;15.54;75.11
67009;BME280;53922;52.080;4.748;2022-07-29T00:47:43;59522.47;;;15.51;75.22
67009;BME280;53922;52.080;4.748;2022-07-29T00:50:10;59519.78;;;15.48;75.21
67009;BME280;53922;52.080;4.748;2022-07-29T00:52:38;59521.41;;;15.50;75.56
67009;BME280;53922;52.080;4.748;2022-07-29T00:57:29;59519.25;;;15.48;75.89
67009;BME280;53922;52.080;4.748;2022-07-29T00:59:54;59513.94;;;15.45;75.69
67009;BME280;53922;52.080;4.748;2022-07-29T01:02:20;59518.25;;;15.49;76.17
67009;BME280;53922;52.080;4.748;2022-07-29T01:04:46;59525.78;;;15.56;75.86
67009;BME280;53922;52.080;4.748;2022-07-29T01:07:11;59519.84;;;15.51;75.68
67009;BME280;53922;52.080;4.748;2022-07-29T01:09:37;59518.25;;;15.49;76.01
67009;BME280;53922;52.080;4.748;2022-07-29T01:12:04;59519.31;;;15.50;76.17
67009;BME280;53922;52.080;4.748;2022-07-29T01:14:30;59520.88;;;15.49;75.96
67009;BME280;53922;52.080;4.748;2022-07-29T01:17:03;59519.78;;;15.48;76.22
67009;BME280;53922;52.080;4.748;2022-07-29T01:19:53;59519.25;;;15.48;76.04
67009;BME280;53922;52.080;4.748;2022-07-29T01:32:59;59512.84;;;15.44;76.25
67009;BME280;53922;52.080;4.748;2022-07-29T01:35:39;59520.81;;;15.47;76.18
67009;BME280;53922;52.080;4.748;2022-07-29T01:38:15;59520.81;;;15.47;76.41
67009;BME280;53922;52.080;4.748;2022-07-29T01:40:49;59514.94;;;15.44;76.50
67009;BME280;53922;52.080;4.748;2022-07-29T01:43:34;59513.88;;;15.42;76.45
67009;BME280;53922;52.080;4.748;2022-07-29T01:46:04;59512.25;;;15.41;76.50
67009;BME280;53922;52.080;4.748;2022-07-29T01:51:16;59509.06;;;15.40;77.02
67009;BME280;53922;52.080;4.748;2022-07-29T01:53:46;59507.47;;;15.39;77.13
67009;BME280;53922;52.080;4.748;2022-07-29T01:56:14;59507.91;;;15.37;76.87
67009;BME280;53922;52.080;4.748;2022-07-29T01:58:42;59507.91;;;15.37;76.93
67009;BME280;53922;52.080;4.748;2022-07-29T02:01:09;59506.91;;;15.38;77.07
67009;BME280;53922;52.080;4.748;2022-07-29T02:03:38;59512.25;;;15.41;77.00
67009;BME280;53922;52.080;4.748;2022-07-29T02:06:07;59504.75;;;15.36;77.11
67009;BME280;53922;52.080;4.748;2022-07-29T02:08:36;59499.38;;;15.31;77.44
67009;BME280;53922;52.080;4.748;2022-07-29T02:11:04;59496.06;;;15.25;77.23
67009;BME280;53922;52.080;4.748;2022-07-29T02:13:31;59496.53;;;15.23;77.67
67009;BME280;53922;52.080;4.748;2022-07-29T02:16:00;59494.97;;;15.24;77.44
67009;BME280;53922;52.080;4.748;2022-07-29T02:18:27;59491.28;;;15.23;77.43
67009;BME280;53922;52.080;4.748;2022-07-29T02:20:56;59490.19;;;15.22;77.37
67009;BME280;53922;52.080;4.748;2022-07-29T02:23:24;59486.44;;;15.19;77.05
67009;BME280;53922;52.080;4.748;2022-07-29T02:25:56;59488.59;;;15.21;77.29
67009;BME280;53922;52.080;4.748;2022-07-29T02:28:27;59486.97;;;15.19;77.05
67009;BME280;53922;52.080;4.748;2022-07-29T02:30:55;59492.22;;;15.19;77.10
67009;BME280;53922;52.080;4.748;2022-07-29T02:33:23;59486.88;;;15.17;77.09
67009;BME280;53922;52.080;4.748;2022-07-29T02:35:50;59484.19;;;15.14;77.28
67009;BME280;53922;52.080;4.748;2022-07-29T02:38:17;59479.28;;;15.07;77.46
67009;BME280;53922;52.080;4.748;2022-07-29T02:41:14;59473.41;;;15.04;77.68
67009;BME280;53922;52.080;4.748;2022-07-29T02:43:40;59473.41;;;15.04;77.84
67009;BME280;53922;52.080;4.748;2022-07-29T02:46:12;59468.50;;;14.97;77.62
67009;BME280;53922;52.080;4.748;2022-07-29T02:48:45;59463.16;;;14.94;78.19
67009;BME280;53922;52.080;4.748;2022-07-29T02:51:19;59466.88;;;14.95;78.06
67009;BME280;53922;52.080;4.748;2022-07-29T02:53:51;59462.09;;;14.93;78.01
67009;BME280;53922;52.080;4.748;2022-07-29T02:56:20;59464.19;;;14.92;77.92
67009;BME280;53922;52.080;4.748;2022-07-29T02:58:58;59460.00;;;14.93;78.00
67009;BME280;53922;52.080;4.748;2022-07-29T03:01:24;59465.19;;;14.91;78.26
67009;BME280;53922;52.080;4.748;2022-07-29T03:03:52;59463.16;;;14.94;78.50
67009;BME280;53922;52.080;4.748;2022-07-29T03:06:20;59457.84;;;14.91;78.34
67009;BME280;53922;52.080;4.748;2022-07-29T03:08:46;59456.69;;;14.88;78.29
67009;BME280;53922;52.080;4.748;2022-07-29T03:11:13;59459.31;;;14.88;78.44
67009;BME280;53922;52.080;4.748;2022-07-29T03:13:39;59452.47;;;14.86;78.56
67009;BME280;53922;52.080;4.748;2022-07-29T03:16:06;59456.69;;;14.88;78.74
67009;BME280;53922;52.080;4.748;2022-07-29T03:18:33;59460.47;;;14.91;78.23
67009;BME280;53922;52.080;4.748;2022-07-29T03:20:59;59447.06;;;14.81;78.10
67009;BME280;53922;52.080;4.748;2022-07-29T03:23:24;59442.22;;;14.76;78.29
67009;BME280;53922;52.080;4.748;2022-07-29T03:25:53;59448.09;;;14.80;78.23
67009;BME280;53922;52.080;4.748;2022-07-29T03:30:44;59447.00;;;14.79;78.35
67009;BME280;53922;52.080;4.748;2022-07-29T03:33:10;59448.03;;;14.77;78.27
67009;BME280;53922;52.080;4.748;2022-07-29T03:35:35;59435.75;;;14.70;78.27
67009;BME280;53922;52.080;4.748;2022-07-29T03:38:01;59441.00;;;14.70;78.17
67009;BME280;53922;52.080;4.748;2022-07-29T03:40:31;59433.59;;;14.68;78.30
67009;BME280;53922;52.080;4.748;2022-07-29T03:43:00;59438.38;;;14.70;78.25
67009;BME280;53922;52.080;4.748;2022-07-29T03:45:28;59442.63;;;14.72;78.49
67009;BME280;53922;52.080;4.748;2022-07-29T03:48:02;59433.06;;;14.68;78.22
67009;BME280;53922;52.080;4.748;2022-07-29T03:50:31;59435.63;;;14.65;78.62
67009;BME280;53922;52.080;4.748;2022-07-29T03:55:23;59435.22;;;14.70;78.38
67009;BME280;53922;52.080;4.748;2022-07-29T03:57:49;59433.53;;;14.66;78.13
67009;BME280;53922;52.080;4.748;2022-07-29T04:00:15;59431.88;;;14.64;78.34
67009;BME280;53922;52.080;4.748;2022-07-29T04:02:42;59431.97;;;14.67;78.47
67009;BME280;53922;52.080;4.748;2022-07-29T04:05:12;59432.47;;;14.65;78.80
67009;BME280;53922;52.080;4.748;2022-07-29T04:07:38;59429.25;;;14.64;78.60
67009;BME280;53922;52.080;4.748;2022-07-29T04:10:04;59429.19;;;14.61;78.51
67009;BME280;53922;52.080;4.748;2022-07-29T04:12:29;59429.75;;;14.62;78.76
67009;BME280;53922;52.080;4.748;2022-07-29T04:14:54;59431.34;;;14.64;78.91
67009;BME280;53922;52.080;4.748;2022-07-29T04:17:20;59429.75;;;14.62;79.04
67009;BME280;53922;52.080;4.748;2022-07-29T04:19:45;59428.72;;;14.64;78.72
67009;BME280;53922;52.080;4.748;2022-07-29T04:22:10;59428.66;;;14.61;78.83
67009;BME280;53922;52.080;4.748;2022-07-29T04:24:36;59427.50;;;14.57;78.72
67009;BME280;53922;52.080;4.748;2022-07-29T04:27:01;59430.22;;;14.60;78.90
67009;BME280;53922;52.080;4.748;2022-07-29T04:29:26;59430.75;;;14.60;78.60
67009;BME280;53922;52.080;4.748;2022-07-29T04:31:52;59424.44;;;14.59;78.61
67009;BME280;53922;52.080;4.748;2022-07-29T04:34:17;59430.28;;;14.63;78.84
67009;BME280;53922;52.080;4.748;2022-07-29T04:36:43;59429.84;;;14.65;78.51
67009;BME280;53922;52.080;4.748;2022-07-29T04:39:08;59435.22;;;14.70;78.41
67009;BME280;53922;52.080;4.748;2022-07-29T04:41:34;59436.22;;;14.68;78.23
67009;BME280;53922;52.080;4.748;2022-07-29T04:44:00;59434.66;;;14.69;78.22
67009;BME280;53922;52.080;4.748;2022-07-29T04:46:30;59438.44;;;14.73;78.56
67009;BME280;53922;52.080;4.748;2022-07-29T04:48:56;59439.53;;;14.74;78.59
67009;BME280;53922;52.080;4.748;2022-07-29T04:51:21;59437.91;;;14.72;78.60
67009;BME280;53922;52.080;4.748;2022-07-29T04:53:47;59437.34;;;14.72;78.47
67009;BME280;53922;52.080;4.748;2022-07-29T04:56:12;59444.78;;;14.74;78.52
67009;BME280;53922;52.080;4.748;2022-07-29T04:58:38;59442.16;;;14.74;78.67
67009;BME280;53922;52.080;4.748;2022-07-29T05:01:03;59440.59;;;14.75;78.82
67009;BME280;53922;52.080;4.748;2022-07-29T05:03:29;59442.75;;;14.77;78.88
67009;BME280;53922;52.080;4.748;2022-07-29T05:08:19;59442.69;;;14.74;79.00
67009;BME280;53922;52.080;4.748;2022-07-29T05:10:45;59441.69;;;14.76;78.92
67009;BME280;53922;52.080;4.748;2022-07-29T05:13:10;59450.22;;;14.82;79.11
67009;BME280;53922;52.080;4.748;2022-07-29T05:18:02;59447.53;;;14.79;78.82
67009;BME280;53922;52.080;4.748;2022-07-29T05:20:28;59443.28;;;14.77;78.89
67009;BME280;53922;52.080;4.748;2022-07-29T05:22:58;59442.22;;;14.76;78.84
67009;BME280;53922;52.080;4.748;2022-07-29T05:25:27;59449.16;;;14.81;79.26
67009;BME280;53922;52.080;4.748;2022-07-29T05:27:53;59455.63;;;14.87;78.96
67009;BME280;53922;52.080;4.748;2022-07-29T05:30:19;59462.09;;;14.93;79.25
67009;BME280;53922;52.080;4.748;2022-07-29T05:35:10;59489.00;;;15.16;79.05
67009;BME280;53922;52.080;4.748;2022-07-29T05:40:03;59493.44;;;15.25;78.00
67009;BME280;53922;52.080;4.748;2022-07-29T05:42:28;59497.13;;;15.26;77.87
67009;BME280;53922;52.080;4.748;2022-07-29T05:44:54;59491.69;;;15.19;78.30
67009;BME280;53922;52.080;4.748;2022-07-29T05:47:20;59496.53;;;15.23;78.14
67009;BME280;53922;52.080;4.748;2022-07-29T05:49:46;59490.13;;;15.20;78.05
67009;BME280;53922;52.080;4.748;2022-07-29T05:52:11;59490.66;;;15.20;78.34
67009;BME280;53922;52.080;4.748;2022-07-29T05:54:38;59490.66;;;15.20;78.78
67009;BME280;53922;52.080;4.748;2022-07-29T05:59:31;59485.34;;;15.18;78.56
67009;BME280;53922;52.080;4.748;2022-07-29T06:01:57;59487.44;;;15.17;79.03
67009;BME280;53922;52.080;4.748;2022-07-29T06:04:22;59481.50;;;15.12;77.93
67009;BME280;53922;52.080;4.748;2022-07-29T06:06:48;59483.19;;;15.16;78.45
67009;BME280;53922;52.080;4.748;2022-07-29T06:11:39;59507.38;;;15.36;78.17
67009;BME280;53922;52.080;4.748;2022-07-29T06:14:04;59525.78;;;15.56;78.12
67009;BME280;53922;52.080;4.748;2022-07-29T06:16:29;59558.72;;;15.88;76.49
67009;BME280;53922;52.080;4.748;2022-07-29T06:18:55;59589.34;;;16.12;74.85
67009;BME280;53922;52.080;4.748;2022-07-29T06:21:20;59619.03;;;16.41;74.51
67009;BME280;53922;52.080;4.748;2022-07-29T06:23:46;59630.50;;;16.57;72.26
67009;BME280;53922;52.080;4.748;2022-07-29T06:26:11;59666.56;;;16.86;72.28
67009;BME280;53922;52.080;4.748;2022-07-29T06:31:02;59741.69;;;17.58;68.75
67009;BME280;53922;52.080;4.748;2022-07-29T06:35:53;59735.31;;;17.57;68.86
67009;BME280;53922;52.080;4.748;2022-07-29T06:43:33;59757.97;;;17.76;68.08
67009;BME280;53922;52.080;4.748;2022-07-29T06:46:02;59766.00;;;17.81;67.61
67009;BME280;53922;52.080;4.748;2022-07-29T06:48:28;59781.22;;;17.98;67.67
67009;BME280;53922;52.080;4.748;2022-07-29T06:50:54;59828.81;;;18.43;65.76
67009;BME280;53922;52.080;4.748;2022-07-29T06:53:19;59823.91;;;18.36;65.17
67009;BME280;53922;52.080;4.748;2022-07-29T06:55:45;59805.56;;;18.21;64.75
67009;BME280;53922;52.080;4.748;2022-07-29T06:58:10;59806.16;;;18.24;65.36
67009;BME280;53922;52.080;4.748;2022-07-29T07:00:36;59810.34;;;18.23;66.49
67009;BME280;53922;52.080;4.748;2022-07-29T07:03:02;59785.56;;;18.02;66.95
67009;BME280;53922;52.080;4.748;2022-07-29T07:05:27;59785.56;;;18.02;66.76
67009;BME280;53922;52.080;4.748;2022-07-29T07:07:52;59793.72;;;18.12;66.88
67009;BME280;53922;52.080;4.748;2022-07-29T07:10:18;59795.81;;;18.12;67.68
67009;BME280;53922;52.080;4.748;2022-07-29T07:12:43;59787.25;;;18.06;67.41
67009;BME280;53922;52.080;4.748;2022-07-29T07:15:09;59790.91;;;18.05;67.04
67009;BME280;53922;52.080;4.748;2022-07-29T07:17:34;59785.50;;;17.99;67.09
67009;BME280;53922;52.080;4.748;2022-07-29T07:22:25;59778.06;;;17.97;67.10
67009;BME280;53922;52.080;4.748;2022-07-29T07:24:50;59771.47;;;17.89;67.56
67009;BME280;53922;52.080;4.748;2022-07-29T07:27:15;59767.75;;;17.88;67.21
67009;BME280;53922;52.080;4.748;2022-07-29T07:29:41;59789.88;;;18.06;68.11
67009;BME280;53922;52.080;4.748;2022-07-29T07:32:07;59805.00;;;18.21;68.29
67009;BME280;53922;52.080;4.748;2022-07-29T07:34:32;59818.50;;;18.31;67.88
67009;BME280;53922;52.080;4.748;2022-07-29T07:36:58;59825.56;;;18.40;66.46
67009;BME280;53922;52.080;4.748;2022-07-29T07:39:23;59814.75;;;18.30;66.46
67009;BME280;53922;52.080;4.748;2022-07-29T07:41:48;59824.50;;;18.39;66.79
67009;BME280;53922;52.080;4.748;2022-07-29T07:44:14;59833.75;;;18.50;66.71
67009;BME280;53922;52.080;4.748;2022-07-29T07:46:39;59847.75;;;18.61;66.76
67009;BME280;53922;52.080;4.748;2022-07-29T07:49:05;59860.75;;;18.74;65.52
67009;BME280;53922;52.080;4.748;2022-07-29T07:53:55;59877.44;;;18.87;65.36
67009;BME280;53922;52.080;4.748;2022-07-29T07:56:20;59904.00;;;19.12;63.69
67009;BME280;53922;52.080;4.748;2022-07-29T07:58:46;59910.00;;;19.21;62.90
67009;BME280;53922;52.080;4.748;2022-07-29T08:01:11;59915.34;;;19.23;63.72
67009;BME280;53922;52.080;4.748;2022-07-29T08:03:37;59929.97;;;19.37;63.13
67009;BME280;53922;52.080;4.748;2022-07-29T08:06:03;59920.88;;;19.34;63.35
67009;BME280;53922;52.080;4.748;2022-07-29T08:08:29;59917.13;;;19.30;62.52
67009;BME280;53922;52.080;4.748;2022-07-29T08:10:54;59925.72;;;19.36;62.12
67009;BME280;53922;52.080;4.748;2022-07-29T08:13:25;59911.63;;;19.22;62.91
67009;BME280;53922;52.080;4.748;2022-07-29T08:15:55;59889.50;;;19.04;63.70
67009;BME280;53922;52.080;4.748;2022-07-29T08:18:36;59902.38;;;19.11;64.45
67009;BME280;53922;52.080;4.748;2022-07-29T08:21:03;59907.31;;;19.18;64.24
67009;BME280;53922;52.080;4.748;2022-07-29T08:23:29;59904.06;;;19.15;63.70
67009;BME280;53922;52.080;4.748;2022-07-29T08:26:07;59914.41;;;19.27;63.72
67009;BME280;53922;52.080;4.748;2022-07-29T08:28:40;59915.97;;;19.26;63.46
67009;BME280;53922;52.080;4.748;2022-07-29T08:31:06;59917.66;;;19.30;63.13
67009;BME280;53922;52.080;4.748;2022-07-29T08:33:32;59922.47;;;19.33;63.89
67009;BME280;53922;52.080;4.748;2022-07-29T08:35:58;59930.66;;;19.43;63.29
67009;BME280;53922;52.080;4.748;2022-07-29T08:38:24;59936.00;;;19.45;63.44
67009;BME280;53922;52.080;4.748;2022-07-29T08:40:52;59939.25;;;19.49;63.44
67009;BME280;53922;52.080;4.748;2022-07-29T08:43:18;59931.69;;;19.41;62.94
67009;BME280;53922;52.080;4.748;2022-07-29T08:45:46;59940.38;;;19.52;63.43
67009;BME280;53922;52.080;4.748;2022-07-29T08:48:14;59928.41;;;19.38;62.25
67009;BME280;53922;52.080;4.748;2022-07-29T08:50:41;59939.78;;;19.49;63.67
67009;BME280;53922;52.080;4.748;2022-07-29T08:53:11;59956.03;;;19.65;63.27
67009;BME280;53922;52.080;4.748;2022-07-29T08:55:42;59964.72;;;19.73;62.30
67009;BME280;53922;52.080;4.748;2022-07-29T08:58:08;59971.16;;;19.76;61.92
67009;BME280;53922;52.080;4.748;2022-07-29T09:00:35;59977.03;;;19.79;61.49
67009;BME280;53922;52.080;4.748;2022-07-29T09:03:02;59968.50;;;19.76;61.21
67009;BME280;53922;52.080;4.748;2022-07-29T09:05:29;59977.66;;;19.83;61.86
67009;BME280;53922;52.080;4.748;2022-07-29T09:07:56;59986.38;;;19.93;62.16
67009;BME280;53922;52.080;4.748;2022-07-29T09:10:22;59984.22;;;19.91;62.54
67009;BME280;53922;52.080;4.748;2022-07-29T09:12:48;60006.47;;;20.15;62.59
67009;BME280;53922;52.080;4.748;2022-07-29T09:15:14;60009.13;;;20.15;61.34
67009;BME280;53922;52.080;4.748;2022-07-29T09:20:11;60027.03;;;20.32;61.74
67009;BME280;53922;52.080;4.748;2022-07-29T09:22:37;60039.97;;;20.42;61.59
67009;BME280;53922;52.080;4.748;2022-07-29T09:25:03;60057.91;;;20.62;62.02
67009;BME280;53922;52.080;4.748;2022-07-29T09:27:28;60085.56;;;20.88;60.23
67009;BME280;53922;52.080;4.748;2022-07-29T09:29:58;60088.28;;;20.90;59.81
67009;BME280;53922;52.080;4.748;2022-07-29T09:32:24;60103.47;;;21.05;59.42
67009;BME280;53922;52.080;4.748;2022-07-29T09:34:49;60105.09;;;21.06;59.25
67009;BME280;53922;52.080;4.748;2022-07-29T09:37:28;60088.91;;;20.94;59.21
67009;BME280;53922;52.080;4.748;2022-07-29T09:39:53;60096.44;;;20.98;61.01
67009;BME280;53922;52.080;4.748;2022-07-29T09:42:29;60098.59;;;21.00;59.64
67009;BME280;53922;52.080;4.748;2022-07-29T09:44:54;60085.00;;;20.85;59.51
67009;BME280;53922;52.080;4.748;2022-07-29T09:47:20;60085.00;;;20.85;61.41
67009;BME280;53922;52.080;4.748;2022-07-29T09:52:17;60106.66;;;21.05;60.48
67009;BME280;53922;52.080;4.748;2022-07-29T09:54:43;60112.16;;;21.13;60.99
67009;BME280;53922;52.080;4.748;2022-07-29T09:57:21;60159.97;;;21.61;59.07
67009;BME280;53922;52.080;4.748;2022-07-29T10:00:08;60217.50;;;22.16;57.15
67009;BME280;53922;52.080;4.748;2022-07-29T10:02:36;60225.56;;;22.21;55.80
67009;BME280;53922;52.080;4.748;2022-07-29T10:05:04;60273.44;;;22.69;54.27
67009;BME280;53922;52.080;4.748;2022-07-29T10:08:03;60309.19;;;22.98;53.49
67009;BME280;53922;52.080;4.748;2022-07-29T10:10:31;60303.22;;;22.92;54.19
67009;BME280;53922;52.080;4.748;2022-07-29T10:13:03;60292.88;;;22.82;53.30
67009;BME280;53922;52.080;4.748;2022-07-29T10:15:30;60308.75;;;23.02;52.81
67009;BME280;53922;52.080;4.748;2022-07-29T10:17:58;60368.00;;;23.59;52.43
67009;BME280;53922;52.080;4.748;2022-07-29T10:20:24;60420.72;;;24.06;52.30
67009;BME280;53922;52.080;4.748;2022-07-29T10:25:18;60463.09;;;24.44;50.64
67009;BME280;53922;52.080;4.748;2022-07-29T10:27:45;60482.78;;;24.68;50.88
67009;BME280;53922;52.080;4.748;2022-07-29T10:30:13;60540.97;;;25.20;49.23
67009;BME280;53922;52.080;4.748;2022-07-29T10:35:47;60618.31;;;25.93;46.51
67009;BME280;53922;52.080;4.748;2022-07-29T10:44:13;60653.19;;;26.24;44.92
67009;BME280;53922;52.080;4.748;2022-07-29T10:46:40;60636.28;;;26.08;45.20
67009;BME280;53922;52.080;4.748;2022-07-29T10:49:19;60659.22;;;26.32;43.75
67009;BME280;53922;52.080;4.748;2022-07-29T10:54:43;60622.56;;;25.92;45.16
67009;BME280;53922;52.080;4.748;2022-07-29T10:57:13;60625.47;;;26.03;45.00
67009;BME280;53922;52.080;4.748;2022-07-29T10:59:39;60662.50;;;26.35;45.66
67009;BME280;53922;52.080;4.748;2022-07-29T11:05:15;60609.63;;;25.85;43.84
67009;BME280;53922;52.080;4.748;2022-07-29T11:10:38;60678.34;;;26.53;43.50
67009;BME280;53922;52.080;4.748;2022-07-29T11:13:03;60702.84;;;26.73;43.96
67009;BME280;53922;52.080;4.748;2022-07-29T11:15:52;60669.63;;;26.45;44.30
67009;BME280;53922;52.080;4.748;2022-07-29T11:20:51;60667.28;;;26.35;44.00
67009;BME280;53922;52.080;4.748;2022-07-29T11:23:30;60694.09;;;26.65;43.35
67009;BME280;53922;52.080;4.748;2022-07-29T11:28:50;60615.06;;;25.90;44.69
67009;BME280;53922;52.080;4.748;2022-07-29T11:31:31;60647.75;;;26.21;43.59
67009;BME280;53922;52.080;4.748;2022-07-29T11:34:32;60665.13;;;26.33;42.43
67009;BME280;53922;52.080;4.748;2022-07-29T11:37:23;60624.91;;;26.02;43.18
67009;BME280;53922;52.080;4.748;2022-07-29T11:44:54;60665.25;;;26.40;42.93
67009;BME280;53922;52.080;4.748;2022-07-29T11:47:24;60686.47;;;26.58;42.11
67009;BME280;53922;52.080;4.748;2022-07-29T11:49:51;60668.44;;;26.38;42.81
67009;BME280;53922;52.080;4.748;2022-07-29T11:52:18;60651.56;;;26.25;43.00
67009;BME280;53922;52.080;4.748;2022-07-29T11:54:49;60664.13;;;26.37;42.80
67009;BME280;53922;52.080;4.748;2022-07-29T11:57:19;60653.22;;;26.27;42.05
67009;BME280;53922;52.080;4.748;2022-07-29T11:59:46;60661.84;;;26.30;43.19
67009;BME280;53922;52.080;4.748;2022-07-29T12:02:13;60657.59;;;26.31;42.77
67009;BME280;53922;52.080;4.748;2022-07-29T12:04:53;60677.66;;;26.45;42.83
67009;BME280;53922;52.080;4.748;2022-07-29T12:07:30;60635.72;;;26.07;42.13
67009;BME280;53922;52.080;4.748;2022-07-29T12:09:55;60616.69;;;25.92;43.62
67009;BME280;53922;52.080;4.748;2022-07-29T12:12:21;60643.34;;;26.15;43.18
67009;BME280;53922;52.080;4.748;2022-07-29T12:14:47;60644.00;;;26.20;42.00
67009;BME280;53922;52.080;4.748;2022-07-29T12:17:32;60628.69;;;26.03;44.02
67009;BME280;53922;52.080;4.748;2022-07-29T12:20:02;60643.41;;;26.17;43.50
67009;BME280;53922;52.080;4.748;2022-07-29T12:24:55;60640.72;;;26.17;42.40
67009;BME280;53922;52.080;4.748;2022-07-29T12:27:21;60645.66;;;26.22;42.14
67009;BME280;53922;52.080;4.748;2022-07-29T12:30:10;60625.38;;;25.98;43.06
67009;BME280;53922;52.080;4.748;2022-07-29T12:32:44;60584.50;;;25.59;43.65
67009;BME280;53922;52.080;4.748;2022-07-29T12:35:13;60551.81;;;25.28;43.84
67009;BME280;53922;52.080;4.748;2022-07-29T12:37:40;60569.88;;;25.48;44.14
67009;BME280;53922;52.080;4.748;2022-07-29T12:40:07;60552.47;;;25.34;44.46
67009;BME280;53922;52.080;4.748;2022-07-29T12:42:33;60586.69;;;25.61;44.52
67009;BME280;53922;52.080;4.748;2022-07-29T12:44:59;60534.97;;;25.15;44.28
67009;BME280;53922;52.080;4.748;2022-07-29T12:47:25;60538.22;;;25.15;45.20
67009;BME280;53922;52.080;4.748;2022-07-29T12:49:50;60510.00;;;24.93;45.34
67009;BME280;53922;52.080;4.748;2022-07-29T12:52:34;60481.03;;;24.61;46.26
67009;BME280;53922;52.080;4.748;2022-07-29T12:54:59;60462.66;;;24.48;45.49
67009;BME280;53922;52.080;4.748;2022-07-29T12:57:26;60463.63;;;24.44;45.90
67009;BME280;53922;52.080;4.748;2022-07-29T13:00:07;60450.63;;;24.35;46.70
67009;BME280;53922;52.080;4.748;2022-07-29T13:02:35;60455.50;;;24.39;44.80
67009;BME280;53922;52.080;4.748;2022-07-29T13:07:27;60490.91;;;24.73;44.92
67009;BME280;53922;52.080;4.748;2022-07-29T13:10:09;60518.72;;;25.02;43.27
67009;BME280;53922;52.080;4.748;2022-07-29T13:12:35;60551.50;;;25.38;44.29
67009;BME280;53922;52.080;4.748;2022-07-29T13:15:00;60599.75;;;25.73;44.11
67009;BME280;53922;52.080;4.748;2022-07-29T13:17:40;60614.50;;;25.90;42.74
67009;BME280;53922;52.080;4.748;2022-07-29T13:20:09;60632.97;;;26.05;41.54
67009;BME280;53922;52.080;4.748;2022-07-29T13:22:37;60650.50;;;26.24;38.78
67009;BME280;53922;52.080;4.748;2022-07-29T13:25:03;60661.88;;;26.32;38.41
67009;BME280;53922;52.080;4.748;2022-07-29T13:27:31;60651.03;;;26.24;38.26
67009;BME280;53922;52.080;4.748;2022-07-29T13:29:58;60653.22;;;26.27;39.80
67009;BME280;53922;52.080;4.748;2022-07-29T13:32:25;60637.47;;;26.14;39.50
67009;BME280;53922;52.080;4.748;2022-07-29T13:34:52;60639.00;;;26.11;40.50
67009;BME280;53922;52.080;4.748;2022-07-29T13:37:18;60630.81;;;26.03;39.89
67009;BME280;53922;52.080;4.748;2022-07-29T13:39:44;60645.59;;;26.19;38.97
67009;BME280;53922;52.080;4.748;2022-07-29T13:42:10;60635.19;;;26.07;37.75
67009;BME280;53922;52.080;4.748;2022-07-29T13:44:38;60627.00;;;25.99;38.07
67009;BME280;53922;52.080;4.748;2022-07-29T13:47:04;60626.50;;;26.01;39.29
67009;BME280;53922;52.080;4.748;2022-07-29T13:49:29;60634.16;;;26.08;39.17
67009;BME280;53922;52.080;4.748;2022-07-29T13:51:55;60654.81;;;26.25;39.92
67009;BME280;53922;52.080;4.748;2022-07-29T13:54:20;60642.31;;;26.16;40.38
67009;BME280;53922;52.080;4.748;2022-07-29T13:56:46;60606.28;;;25.80;39.18
67009;BME280;53922;52.080;4.748;2022-07-29T13:59:11;60606.91;;;25.83;39.98
67009;BME280;53922;52.080;4.748;2022-07-29T14:01:38;60574.25;;;25.54;39.59
67009;BME280;53922;52.080;4.748;2022-07-29T14:04:06;60578.63;;;25.58;41.17
67009;BME280;53922;52.080;4.748;2022-07-29T14:06:31;60538.75;;;25.16;40.57
67009;BME280;53922;52.080;4.748;2022-07-29T14:08:57;60555.16;;;25.34;41.28
67009;BME280;53922;52.080;4.748;2022-07-29T14:11:22;60591.06;;;25.65;41.32
67009;BME280;53922;52.080;4.748;2022-07-29T14:13:47;60597.13;;;25.76;39.77
67009;BME280;53922;52.080;4.748;2022-07-29T14:16:13;60611.25;;;25.87;39.01
67009;BME280;53922;52.080;4.748;2022-07-29T14:18:38;60631.41;;;26.06;39.30
67009;BME280;53922;52.080;4.748;2022-07-29T14:21:03;60656.44;;;26.27;38.04
67009;BME280;53922;52.080;4.748;2022-07-29T14:23:29;60667.38;;;26.40;36.53
67009;BME280;53922;52.080;4.748;2022-07-29T14:25:54;60646.69;;;26.20;37.43
67009;BME280;53922;52.080;4.748;2022-07-29T14:28:20;60636.88;;;26.11;37.19
67009;BME280;53922;52.080;4.748;2022-07-29T14:30:45;60627.09;;;26.04;38.31
67009;BME280;53922;52.080;4.748;2022-07-29T14:33:10;60636.78;;;26.06;38.49
67009;BME280;53922;52.080;4.748;2022-07-29T14:35:36;60642.28;;;26.14;39.60
67009;BME280;53922;52.080;4.748;2022-07-29T14:38:01;60637.38;;;26.09;39.18
67009;BME280;53922;52.080;4.748;2022-07-29T14:40:27;60641.25;;;26.15;38.11